sensor_id;sensor_type;location;lat;lon;timestamp;pressure;altitude;pressure_sealevel;temperature;humidity
9229;BME280;4649;42.644;23.284;2023-04-28T03:18:50;93158.81;;;4.69;54.44
9229;BME280;4649;42.644;23.284;2023-04-28T04:35:24;93270.59;;;10.38;39.80
9229;BME280;4649;42.644;23.284;2023-04-28T04:38:37;93315.84;;;11.92;37.49
9229;BME280;4649;42.644;23.284;2023-04-28T05:05:10;93320.59;;;16.86;29.08
9229;BME280;4649;42.644;23.284;2023-04-28T05:07:37;93299.47;;;17.12;28.20
9229;BME280;4649;42.644;23.284;2023-04-28T05:10:06;93277.59;;;18.45;25.33
9229;BME280;4649;42.644;23.284;2023-04-28T05:12:37;93331.25;;;18.81;25.03
9229;BME280;4649;42.644;23.284;2023-04-28T05:15:04;93428.19;;;19.80;25.07
9229;BME280;4649;42.644;23.284;2023-04-28T05:17:33;93419.50;;;19.96;24.69
9229;BME280;4649;42.644;23.284;2023-04-28T05:20:02;93401.69;;;20.32;24.28
9229;BME280;4649;42.644;23.284;2023-04-28T05:22:29;93432.19;;;20.57;24.48
9229;BME280;4649;42.644;23.284;2023-04-28T05:24:56;93379.13;;;20.26;24.47
9229;BME280;4649;42.644;23.284;2023-04-28T05:27:23;93408.63;;;20.76;24.34
9229;BME280;4649;42.644;23.284;2023-04-28T05:29:49;93384.16;;;20.58;23.36
9229;BME280;4649;42.644;23.284;2023-04-28T05:32:17;93414.19;;;22.12;22.54
9229;BME280;4649;42.644;23.284;2023-04-28T05:34:43;93421.81;;;22.43;21.99
9229;BME280;4649;42.644;23.284;2023-04-28T05:37:11;93342.75;;;21.15;22.25
9229;BME280;4649;42.644;23.284;2023-04-28T05:39:39;93388.22;;;21.61;22.21
9229;BME280;4649;42.644;23.284;2023-04-28T05:42:05;93421.13;;;22.20;21.67
9229;BME280;4649;42.644;23.284;2023-04-28T05:44:32;93348.16;;;22.29;21.84
9229;BME280;4649;42.644;23.284;2023-04-28T05:46:59;93413.69;;;23.82;20.88
9229;BME280;4649;42.644;23.284;2023-04-28T05:49:26;93402.44;;;22.11;22.19
9229;BME280;4649;42.644;23.284;2023-04-28T05:51:52;93359.03;;;23.31;20.28
9229;BME280;4649;42.644;23.284;2023-04-28T05:54:21;93375.50;;;21.80;22.52
9229;BME280;4649;42.644;23.284;2023-04-28T05:56:48;93323.03;;;22.73;21.04
9229;BME280;4649;42.644;23.284;2023-04-28T05:59:14;93432.41;;;23.66;20.16
9229;BME280;4649;42.644;23.284;2023-04-28T06:01:41;93409.78;;;23.43;20.03
9229;BME280;4649;42.644;23.284;2023-04-28T06:04:08;93440.00;;;23.83;19.65
9229;BME280;4649;42.644;23.284;2023-04-28T06:06:35;93437.66;;;23.96;19.38
9229;BME280;4649;42.644;23.284;2023-04-28T06:09:02;93428.72;;;24.39;19.36
9229;BME280;4649;42.644;23.284;2023-04-28T06:11:32;93421.22;;;24.49;18.73
9229;BME280;4649;42.644;23.284;2023-04-28T06:13:59;93399.25;;;24.51;18.48
9229;BME280;4649;42.644;23.284;2023-04-28T06:16:25;93339.41;;;23.20;18.93
9229;BME280;4649;42.644;23.284;2023-04-28T06:18:52;93432.13;;;23.79;19.15
9229;BME280;4649;42.644;23.284;2023-04-28T06:21:19;93399.03;;;24.39;18.50
9229;BME280;4649;42.644;23.284;2023-04-28T06:23:46;93438.91;;;23.61;19.54
9229;BME280;4649;42.644;23.284;2023-04-28T06:26:13;93402.03;;;24.00;18.69
9229;BME280;4649;42.644;23.284;2023-04-28T06:28:42;93374.31;;;23.08;19.57
9229;BME280;4649;42.644;23.284;2023-04-28T06:31:09;93343.38;;;22.29;20.11
9229;BME280;4649;42.644;23.284;2023-04-28T06:33:35;93374.28;;;22.60;20.05
9229;BME280;4649;42.644;23.284;2023-04-28T06:36:03;93443.59;;;23.03;20.48
9229;BME280;4649;42.644;23.284;2023-04-28T06:38:29;93429.72;;;22.78;19.96
9229;BME280;4649;42.644;23.284;2023-04-28T06:40:56;93428.72;;;22.05;20.91
9229;BME280;4649;42.644;23.284;2023-04-28T06:43:23;93277.22;;;20.24;21.85
9229;BME280;4649;42.644;23.284;2023-04-28T06:45:51;93340.88;;;20.66;22.28
9229;BME280;4649;42.644;23.284;2023-04-28T06:48:18;93400.56;;;21.52;21.38
9229;BME280;4649;42.644;23.284;2023-04-28T06:50:45;93427.34;;;21.82;21.47
9229;BME280;4649;42.644;23.284;2023-04-28T06:53:12;93424.63;;;21.30;21.87
9229;BME280;4649;42.644;23.284;2023-04-28T06:55:38;93430.47;;;21.41;22.18
9229;BME280;4649;42.644;23.284;2023-04-28T06:58:05;93374.66;;;20.88;21.64
9229;BME280;4649;42.644;23.284;2023-04-28T07:00:33;93402.66;;;20.50;22.74
9229;BME280;4649;42.644;23.284;2023-04-28T07:03:01;93316.09;;;19.36;22.76
9229;BME280;4649;42.644;23.284;2023-04-28T07:05:30;93393.69;;;19.71;23.53
9229;BME280;4649;42.644;23.284;2023-04-28T07:07:58;93347.75;;;18.89;24.58
9229;BME280;4649;42.644;23.284;2023-04-28T07:10:25;93426.97;;;19.60;24.05
9229;BME280;4649;42.644;23.284;2023-04-28T07:12:53;93306.00;;;19.03;24.31
9229;BME280;4649;42.644;23.284;2023-04-28T07:15:20;93274.06;;;18.37;24.10
9229;BME280;4649;42.644;23.284;2023-04-28T07:17:50;93391.03;;;18.42;24.74
9229;BME280;4649;42.644;23.284;2023-04-28T07:20:19;93261.41;;;17.60;25.06
9229;BME280;4649;42.644;23.284;2023-04-28T07:22:46;93343.84;;;18.56;25.47
9229;BME280;4649;42.644;23.284;2023-04-28T07:25:13;93301.72;;;18.26;24.40
9229;BME280;4649;42.644;23.284;2023-04-28T07:27:42;93419.47;;;18.19;24.96
9229;BME280;4649;42.644;23.284;2023-04-28T07:30:10;93242.78;;;16.74;26.76
9229;BME280;4649;42.644;23.284;2023-04-28T07:32:40;93348.19;;;18.52;25.88
9229;BME280;4649;42.644;23.284;2023-04-28T07:35:08;93250.88;;;17.84;25.60
9229;BME280;4649;42.644;23.284;2023-04-28T07:37:37;93351.75;;;18.06;25.30
9229;BME280;4649;42.644;23.284;2023-04-28T07:43:35;93313.25;;;17.32;26.82
9229;BME280;4649;42.644;23.284;2023-04-28T07:46:25;93303.75;;;17.33;27.11
9229;BME280;4649;42.644;23.284;2023-04-28T07:49:06;93429.78;;;18.59;25.85
9229;BME280;4649;42.644;23.284;2023-04-28T07:51:38;93269.91;;;17.70;26.13
9229;BME280;4649;42.644;23.284;2023-04-28T07:54:10;93275.22;;;17.55;25.77
9229;BME280;4649;42.644;23.284;2023-04-28T07:56:44;93345.03;;;18.28;25.95
9229;BME280;4649;42.644;23.284;2023-04-28T07:59:11;93356.53;;;18.46;26.15
9229;BME280;4649;42.644;23.284;2023-04-28T08:01:38;93226.19;;;17.77;24.73
9229;BME280;4649;42.644;23.284;2023-04-28T08:04:05;93339.38;;;18.46;25.43
9229;BME280;4649;42.644;23.284;2023-04-28T08:06:32;93350.00;;;18.16;26.42
9229;BME280;4649;42.644;23.284;2023-04-28T08:09:00;93330.38;;;17.46;26.27
9229;BME280;4649;42.644;23.284;2023-04-28T08:11:39;93339.22;;;17.00;27.40
9229;BME280;4649;42.644;23.284;2023-04-28T08:14:10;93209.13;;;15.96;27.99
9229;BME280;4649;42.644;23.284;2023-04-28T08:16:58;93210.44;;;14.90;29.16
9229;BME280;4649;42.644;23.284;2023-04-28T08:20:07;93415.06;;;17.12;28.10
9229;BME280;4649;42.644;23.284;2023-04-28T08:23:02;93295.72;;;15.83;29.05
9229;BME280;4649;42.644;23.284;2023-04-28T08:26:18;93300.59;;;16.65;29.53
9229;BME280;4649;42.644;23.284;2023-04-28T08:29:16;93200.31;;;15.90;28.72
9229;BME280;4649;42.644;23.284;2023-04-28T08:31:43;93319.75;;;16.78;27.93
9229;BME280;4649;42.644;23.284;2023-04-28T08:34:12;93201.97;;;15.49;27.92
9229;BME280;4649;42.644;23.284;2023-04-28T08:36:55;93329.97;;;16.33;28.70
9229;BME280;4649;42.644;23.284;2023-04-28T08:39:41;93403.13;;;16.71;28.07
9229;BME280;4649;42.644;23.284;2023-04-28T08:42:20;93220.00;;;14.78;29.75
9229;BME280;4649;42.644;23.284;2023-04-28T08:45:16;93404.22;;;15.58;29.84
9229;BME280;4649;42.644;23.284;2023-04-28T08:48:24;93225.56;;;14.49;31.18
9229;BME280;4649;42.644;23.284;2023-04-28T08:51:32;93212.38;;;14.29;32.11
9229;BME280;4649;42.644;23.284;2023-04-28T08:54:10;93203.06;;;14.67;29.85
9229;BME280;4649;42.644;23.284;2023-04-28T08:57:24;93241.09;;;14.96;30.78
9229;BME280;4649;42.644;23.284;2023-04-28T09:00:11;93242.69;;;14.86;31.09
9229;BME280;4649;42.644;23.284;2023-04-28T09:03:12;93256.88;;;15.40;30.35
9229;BME280;4649;42.644;23.284;2023-04-28T09:06:14;93211.41;;;14.51;29.72
9229;BME280;4649;42.644;23.284;2023-04-28T09:11:52;93270.72;;;14.63;30.85
9229;BME280;4649;42.644;23.284;2023-04-28T09:14:57;93206.94;;;14.29;30.13
9229;BME280;4649;42.644;23.284;2023-04-28T09:17:47;93384.19;;;15.08;31.30
9229;BME280;4649;42.644;23.284;2023-04-28T09:20:40;93245.91;;;15.09;30.77
9229;BME280;4649;42.644;23.284;2023-04-28T09:23:48;93370.41;;;16.79;29.23
9229;BME280;4649;42.644;23.284;2023-04-28T09:26:22;93258.91;;;15.21;30.09
9229;BME280;4649;42.644;23.284;2023-04-28T09:29:11;93180.38;;;14.17;30.47
9229;BME280;4649;42.644;23.284;2023-04-28T09:35:24;93366.78;;;15.77;30.94
9229;BME280;4649;42.644;23.284;2023-04-28T09:38:20;93297.53;;;15.62;30.98
9229;BME280;4649;42.644;23.284;2023-04-28T09:41:13;93179.28;;;15.04;29.24
9229;BME280;4649;42.644;23.284;2023-04-28T09:47:56;93183.69;;;15.44;30.33
9229;BME280;4649;42.644;23.284;2023-04-28T09:54:13;93340.97;;;16.28;31.56
9229;BME280;4649;42.644;23.284;2023-04-28T09:57:38;93165.81;;;14.93;29.81
9229;BME280;4649;42.644;23.284;2023-04-28T10:00:43;93341.78;;;16.54;29.28
9229;BME280;4649;42.644;23.284;2023-04-28T10:03:51;93194.66;;;15.57;29.36
9229;BME280;4649;42.644;23.284;2023-04-28T10:09:33;93207.75;;;15.27;29.58
9229;BME280;4649;42.644;23.284;2023-04-28T10:12:16;93145.31;;;15.05;28.63
9229;BME280;4649;42.644;23.284;2023-04-28T10:21:19;93225.44;;;15.39;29.63
9229;BME280;4649;42.644;23.284;2023-04-28T10:24:16;93210.16;;;15.12;29.59
9229;BME280;4649;42.644;23.284;2023-04-28T10:30:27;93139.56;;;15.09;29.49
9229;BME280;4649;42.644;23.284;2023-04-28T10:33:21;93318.34;;;16.58;27.63
9229;BME280;4649;42.644;23.284;2023-04-28T10:36:03;93249.19;;;16.06;28.72
9229;BME280;4649;42.644;23.284;2023-04-28T10:39:13;93170.19;;;15.83;28.56
9229;BME280;4649;42.644;23.284;2023-04-28T10:41:54;93266.50;;;16.40;27.83
9229;BME280;4649;42.644;23.284;2023-04-28T10:44:44;93309.53;;;17.04;27.81
9229;BME280;4649;42.644;23.284;2023-04-28T10:47:24;93250.38;;;16.24;27.87
9229;BME280;4649;42.644;23.284;2023-04-28T10:50:44;93159.13;;;15.44;28.66
9229;BME280;4649;42.644;23.284;2023-04-28T10:56:30;93147.22;;;15.28;26.54
9229;BME280;4649;42.644;23.284;2023-04-28T10:59:31;93112.19;;;15.01;27.48
9229;BME280;4649;42.644;23.284;2023-04-28T11:02:50;93109.53;;;14.77;28.49
9229;BME280;4649;42.644;23.284;2023-04-28T11:05:35;93112.31;;;15.09;28.29
9229;BME280;4649;42.644;23.284;2023-04-28T11:08:32;93121.47;;;14.93;28.68
9229;BME280;4649;42.644;23.284;2023-04-28T11:11:18;93141.63;;;15.39;27.69
9229;BME280;4649;42.644;23.284;2023-04-28T11:17:10;93280.72;;;16.77;27.75
9229;BME280;4649;42.644;23.284;2023-04-28T11:20:04;93203.31;;;16.18;26.35
9229;BME280;4649;42.644;23.284;2023-04-28T11:22:34;93094.69;;;15.59;26.25
9229;BME280;4649;42.644;23.284;2023-04-28T11:25:02;93198.94;;;16.41;25.47
9229;BME280;4649;42.644;23.284;2023-04-28T11:27:30;93132.09;;;16.03;25.77
9229;BME280;4649;42.644;23.284;2023-04-28T11:29:57;93123.13;;;15.77;26.92
9229;BME280;4649;42.644;23.284;2023-04-28T11:32:29;93145.78;;;15.72;27.08
9229;BME280;4649;42.644;23.284;2023-04-28T11:35:00;93158.72;;;15.84;27.44
9229;BME280;4649;42.644;23.284;2023-04-28T11:37:34;93190.28;;;16.24;26.88
9229;BME280;4649;42.644;23.284;2023-04-28T11:40:16;93191.91;;;16.32;27.48
9229;BME280;4649;42.644;23.284;2023-04-28T11:43:05;93078.09;;;15.26;27.06
9229;BME280;4649;42.644;23.284;2023-04-28T11:45:48;93122.94;;;15.75;26.47
9229;BME280;4649;42.644;23.284;2023-04-28T11:48:20;93262.75;;;16.82;25.84
9229;BME280;4649;42.644;23.284;2023-04-28T11:51:03;93231.41;;;16.70;25.73
9229;BME280;4649;42.644;23.284;2023-04-28T11:57:30;93191.41;;;16.02;26.35
9229;BME280;4649;42.644;23.284;2023-04-28T12:00:39;93252.88;;;16.53;25.63
9229;BME280;4649;42.644;23.284;2023-04-28T12:26:13;93046.03;;;15.01;27.75
9229;BME280;4649;42.644;23.284;2023-04-28T12:29:47;93163.59;;;15.60;26.55
9229;BME280;4649;42.644;23.284;2023-04-28T12:32:55;93212.56;;;15.71;27.40
9229;BME280;4649;42.644;23.284;2023-04-28T12:48:53;93228.25;;;16.40;27.47
9229;BME280;4649;42.644;23.284;2023-04-28T12:51:24;93220.72;;;16.59;26.41
9229;BME280;4649;42.644;23.284;2023-04-28T12:54:15;93214.94;;;16.62;26.86
9229;BME280;4649;42.644;23.284;2023-04-28T12:57:11;93115.56;;;15.70;27.23
9229;BME280;4649;42.644;23.284;2023-04-28T13:20:33;93013.97;;;15.20;27.49
9229;BME280;4649;42.644;23.284;2023-04-28T13:23:12;93030.50;;;15.27;28.38
9229;BME280;4649;42.644;23.284;2023-04-28T13:25:40;93083.38;;;15.81;27.64
9229;BME280;4649;42.644;23.284;2023-04-28T13:31:19;93187.09;;;16.51;27.39
9229;BME280;4649;42.644;23.284;2023-04-28T13:34:10;93192.13;;;16.47;27.63
9229;BME280;4649;42.644;23.284;2023-04-28T13:39:47;93015.75;;;15.17;27.77
9229;BME280;4649;42.644;23.284;2023-04-28T13:42:42;93065.47;;;15.10;28.05
9229;BME280;4649;42.644;23.284;2023-04-28T13:51:42;93052.97;;;15.46;28.18
9229;BME280;4649;42.644;23.284;2023-04-28T13:57:45;92996.53;;;15.28;28.18
9229;BME280;4649;42.644;23.284;2023-04-28T14:00:14;92997.91;;;15.34;27.40
9229;BME280;4649;42.644;23.284;2023-04-28T14:06:23;93106.75;;;15.89;28.21
9229;BME280;4649;42.644;23.284;2023-04-28T14:08:51;93053.75;;;15.72;27.05
9229;BME280;4649;42.644;23.284;2023-04-28T14:11:20;93101.53;;;16.04;27.03
9229;BME280;4649;42.644;23.284;2023-04-28T14:13:55;93173.50;;;16.58;27.72
9229;BME280;4649;42.644;23.284;2023-04-28T14:16:26;92979.63;;;15.29;27.51
9229;BME280;4649;42.644;23.284;2023-04-28T14:18:55;93169.09;;;16.55;28.63
9229;BME280;4649;42.644;23.284;2023-04-28T14:24:47;93003.25;;;15.53;28.15
9229;BME280;4649;42.644;23.284;2023-04-28T14:27:14;93047.34;;;15.95;28.31
9229;BME280;4649;42.644;23.284;2023-04-28T14:29:43;93169.19;;;16.76;27.78
9229;BME280;4649;42.644;23.284;2023-04-28T14:32:16;93024.47;;;15.85;28.07
9229;BME280;4649;42.644;23.284;2023-04-28T14:34:49;92970.22;;;15.43;28.18
9229;BME280;4649;42.644;23.284;2023-04-28T14:37:33;93046.72;;;15.89;28.00
9229;BME280;4649;42.644;23.284;2023-04-28T14:40:32;93147.06;;;16.53;27.97
9229;BME280;4649;42.644;23.284;2023-04-28T14:43:03;93063.94;;;15.84;27.80
9229;BME280;4649;42.644;23.284;2023-04-28T14:45:37;93079.88;;;15.93;27.45
9229;BME280;4649;42.644;23.284;2023-04-28T14:48:07;92967.38;;;15.23;27.65
9229;BME280;4649;42.644;23.284;2023-04-28T14:50:39;92984.38;;;15.29;27.80
9229;BME280;4649;42.644;23.284;2023-04-28T14:53:11;92959.66;;;15.09;27.63
9229;BME280;4649;42.644;23.284;2023-04-28T14:55:50;93058.16;;;15.75;28.06
9229;BME280;4649;42.644;23.284;2023-04-28T14:58:18;93119.16;;;16.16;27.96
9229;BME280;4649;42.644;23.284;2023-04-28T15:00:50;92946.56;;;15.07;28.28
9229;BME280;4649;42.644;23.284;2023-04-28T15:03:21;93028.69;;;15.74;28.58
9229;BME280;4649;42.644;23.284;2023-04-28T15:06:06;93093.34;;;16.17;27.89
9229;BME280;4649;42.644;23.284;2023-04-28T15:08:42;93086.63;;;16.05;28.41
9229;BME280;4649;42.644;23.284;2023-04-28T15:11:15;93030.22;;;15.82;28.18
9229;BME280;4649;42.644;23.284;2023-04-28T15:13:42;93143.56;;;16.53;27.93
9229;BME280;4649;42.644;23.284;2023-04-28T15:16:17;93150.09;;;16.37;28.23
9229;BME280;4649;42.644;23.284;2023-04-28T15:18:45;93079.03;;;16.11;27.43
9229;BME280;4649;42.644;23.284;2023-04-28T15:21:12;93070.25;;;16.05;28.43
9229;BME280;4649;42.644;23.284;2023-04-28T15:23:39;93005.66;;;15.43;29.15
9229;BME280;4649;42.644;23.284;2023-04-28T15:26:07;93050.91;;;15.78;28.75
9229;BME280;4649;42.644;23.284;2023-04-28T15:28:37;92947.38;;;14.89;28.76
9229;BME280;4649;42.644;23.284;2023-04-28T15:31:32;93141.66;;;16.22;28.85
9229;BME280;4649;42.644;23.284;2023-04-28T15:34:02;93077.97;;;15.50;28.62
9229;BME280;4649;42.644;23.284;2023-04-28T15:36:36;92946.69;;;14.70;27.95
9229;BME280;4649;42.644;23.284;2023-04-28T15:39:05;92979.84;;;14.87;28.69
9229;BME280;4649;42.644;23.284;2023-04-28T15:41:33;93139.34;;;16.13;28.62
9229;BME280;4649;42.644;23.284;2023-04-28T15:44:04;92956.03;;;14.88;28.29
9229;BME280;4649;42.644;23.284;2023-04-28T15:46:39;93022.53;;;15.29;28.67
9229;BME280;4649;42.644;23.284;2023-04-28T15:49:08;93131.66;;;15.86;29.66
9229;BME280;4649;42.644;23.284;2023-04-28T15:51:38;92929.44;;;14.50;28.66
9229;BME280;4649;42.644;23.284;2023-04-28T15:54:28;93126.00;;;15.97;28.68
9229;BME280;4649;42.644;23.284;2023-04-28T15:57:06;92972.31;;;14.93;29.78
9229;BME280;4649;42.644;23.284;2023-04-28T15:59:35;92934.59;;;14.53;30.03
9229;BME280;4649;42.644;23.284;2023-04-28T16:02:10;93012.19;;;15.09;31.19
9229;BME280;4649;42.644;23.284;2023-04-28T16:05:06;92922.31;;;14.47;29.27
9229;BME280;4649;42.644;23.284;2023-04-28T16:07:54;93050.06;;;15.13;29.94
9229;BME280;4649;42.644;23.284;2023-04-28T16:10:44;92952.00;;;14.13;29.94
9229;BME280;4649;42.644;23.284;2023-04-28T16:13:12;93117.88;;;15.34;30.20
9229;BME280;4649;42.644;23.284;2023-04-28T16:15:43;93126.63;;;15.46;30.16
9229;BME280;4649;42.644;23.284;2023-04-28T16:21:11;93016.13;;;14.64;30.04
9229;BME280;4649;42.644;23.284;2023-04-28T16:23:49;93095.16;;;14.95;30.06
9229;BME280;4649;42.644;23.284;2023-04-28T16:26:49;93116.03;;;14.74;31.04
9229;BME280;4649;42.644;23.284;2023-04-28T16:32:41;92943.50;;;13.43;31.20
9229;BME280;4649;42.644;23.284;2023-04-28T16:35:53;93116.75;;;14.75;31.03
9229;BME280;4649;42.644;23.284;2023-04-28T16:42:09;92958.13;;;13.40;30.69
9229;BME280;4649;42.644;23.284;2023-04-28T16:45:18;93016.88;;;13.67;31.09
9229;BME280;4649;42.644;23.284;2023-04-28T16:48:10;92932.41;;;13.18;31.38
9229;BME280;4649;42.644;23.284;2023-04-28T19:25:00;93221.31;;;9.76;42.68
9229;BME280;4649;42.644;23.284;2023-04-28T19:34:46;93235.72;;;9.32;43.86
9229;BME280;4649;42.644;23.284;2023-04-28T19:37:51;93132.97;;;8.59;43.36
9229;BME280;4649;42.644;23.284;2023-04-28T19:44:09;93082.94;;;8.33;43.41
9229;BME280;4649;42.644;23.284;2023-04-28T19:47:03;93228.34;;;9.32;43.36
9229;BME280;4649;42.644;23.284;2023-04-28T19:49:43;93011.28;;;7.76;43.46
9229;BME280;4649;42.644;23.284;2023-04-28T19:53:00;93051.00;;;8.01;44.65
9229;BME280;4649;42.644;23.284;2023-04-28T20:02:16;92991.19;;;7.52;46.65
9229;BME280;4649;42.644;23.284;2023-04-28T20:05:10;93210.84;;;8.97;46.20
9229;BME280;4649;42.644;23.284;2023-04-28T20:07:52;92987.63;;;7.40;46.11
9229;BME280;4649;42.644;23.284;2023-04-28T20:10:21;93136.88;;;8.33;44.54
9229;BME280;4649;42.644;23.284;2023-04-28T21:12:17;93186.94;;;8.59;45.84
9229;BME280;4649;42.644;23.284;2023-04-28T21:50:33;93015.34;;;7.26;49.46
9229;BME280;4649;42.644;23.284;2023-04-28T22:20:10;92988.16;;;6.85;51.51
9229;BME280;4649;42.644;23.284;2023-04-28T22:44:13;93158.28;;;7.83;52.00
9229;BME280;4649;42.644;23.284;2023-04-28T23:33:10;92878.75;;;6.03;59.99
9229;BME280;4649;42.644;23.284;2023-04-28T23:36:01;92950.84;;;6.38;61.93
9229;BME280;4649;42.644;23.284;2023-04-28T23:39:03;92961.47;;;6.47;61.49
